Terminal Aerodrome Forecast
Issued by NWS

Home | Current Version | Previous Version | Text Only | Print | Product List | Glossary On
Versions: 1 2 3 4 5 6 7 8 9 10 11 12
000
FTUS45 KVEF 191133
TAFEED
TAF
KEED 191133Z 1912/2012 25008KT P6SM BKN050 OVC080
     FM191600 18008KT P6SM -SHRA SCT030 OVC050
     FM200300 22008KT P6SM SCT050 BKN150=

USA.gov is the U.S. government's official web portal to all federal, state and local government web resources and services.